Time,TemperatureF,DewpointF,PressureIn,WindDirection,WindDirectionDegrees,WindSpeedMPH,WindSpeedGustMPH,Humidity,HourlyPrecipIn,Conditions,Clouds,dailyrainin,SoftwareType,DateUTC
2013-03-29 00:03:00,67.7,22.1,30.07,WSW,248,1.6,2.5,18,0.00,,,0.00,WUHU216HW,2013-03-29 07:03:00,
2013-03-29 00:13:00,67.3,21.7,30.06,SW,225,1.6,2.7,18,0.00,,,0.00,WUHU216HW,2013-03-29 07:13:00,
2013-03-29 00:23:00,67.0,23.1,30.07,SSW,203,1.1,3.6,19,0.00,,,0.00,WUHU216HW,2013-03-29 07:23:00,
2013-03-29 00:33:00,66.4,24.1,30.07,SW,225,0.9,3.6,20,0.00,,,0.00,WUHU216HW,2013-03-29 07:33:00,
2013-03-29 00:43:00,65.9,24.7,30.07,SE,135,0.7,1.8,21,0.00,,,0.00,WUHU216HW,2013-03-29 07:43:00,
2013-03-29 00:53:00,65.5,24.4,30.07,ESE,113,0.0,1.3,21,0.00,,,0.00,WUHU216HW,2013-03-29 07:53:00,
2013-03-29 01:03:00,65.0,24.9,30.07,ESE,113,0.0,1.1,22,0.00,,,0.00,WUHU216HW,2013-03-29 08:03:00,
2013-03-29 01:14:00,64.4,24.5,30.07,NNE,23,0.2,2.5,22,0.00,,,0.00,WUHU216HW,2013-03-29 08:14:00,
2013-03-29 01:24:00,63.7,24.8,30.07,NNE,23,0.2,0.7,23,0.00,,,0.00,WUHU216HW,2013-03-29 08:24:00,
2013-03-29 01:34:00,63.4,24.6,30.07,ENE,68,0.0,1.8,23,0.00,,,0.00,WUHU216HW,2013-03-29 08:34:00,
2013-03-29 01:44:00,63.0,24.3,30.07,SE,135,0.7,0.7,23,0.00,,,0.00,WUHU216HW,2013-03-29 08:44:00,
2013-03-29 01:54:00,62.5,23.9,30.07,SSE,158,0.9,1.1,23,0.00,,,0.00,WUHU216HW,2013-03-29 08:54:00,
2013-03-29 02:04:00,62.1,24.5,30.07,SSE,158,0.0,0.9,24,0.00,,,0.00,WUHU216HW,2013-03-29 09:04:00,
2013-03-29 02:14:00,61.2,23.8,30.06,East,90,1.8,1.8,24,0.00,,,0.00,WUHU216HW,2013-03-29 09:14:00,
2013-03-29 02:24:00,60.8,22.5,30.06,East,90,0.0,1.6,23,0.00,,,0.00,WUHU216HW,2013-03-29 09:24:00,
2013-03-29 02:34:00,60.3,23.0,30.06,SW,225,0.0,1.3,24,0.00,,,0.00,WUHU216HW,2013-03-29 09:34:00,
2013-03-29 02:44:00,59.6,23.3,30.06,SSE,158,0.9,1.1,25,0.00,,,0.00,WUHU216HW,2013-03-29 09:44:00,
2013-03-29 02:54:00,59.2,23.1,30.05,SE,135,0.0,0.9,25,0.00,,,0.00,WUHU216HW,2013-03-29 09:54:00,
2013-03-29 03:04:00,58.7,24.5,30.06,SSE,158,0.0,0.7,27,0.00,,,0.00,WUHU216HW,2013-03-29 10:04:00,
2013-03-29 03:14:00,58.3,24.2,30.05,East,90,0.0,0.2,27,0.00,,,0.00,WUHU216HW,2013-03-29 10:14:00,
2013-03-29 03:24:00,57.8,23.7,30.05,ESE,113,0.7,1.1,27,0.00,,,0.00,WUHU216HW,2013-03-29 10:24:00,
2013-03-29 03:34:00,57.2,23.2,30.05,East,90,1.6,1.8,27,0.00,,,0.00,WUHU216HW,2013-03-29 10:34:00,
2013-03-29 03:44:00,57.1,24.0,30.05,ESE,113,1.3,1.6,28,0.00,,,0.00,WUHU216HW,2013-03-29 10:44:00,
2013-03-29 03:54:00,56.9,23.9,30.05,ESE,113,1.1,1.8,28,0.00,,,0.00,WUHU216HW,2013-03-29 10:54:00,
2013-03-29 04:04:00,56.7,23.8,30.05,ENE,68,0.0,1.3,28,0.00,,,0.00,WUHU216HW,2013-03-29 11:04:00,
2013-03-29 04:15:00,56.3,23.4,30.06,SSE,158,0.4,0.4,28,0.00,,,0.00,WUHU216HW,2013-03-29 11:15:00,
2013-03-29 04:25:00,56.2,23.2,30.06,WSW,248,0.0,0.4,28,0.00,,,0.00,WUHU216HW,2013-03-29 11:25:00,
2013-03-29 04:35:00,55.6,23.7,30.06,SSE,158,0.0,0.4,29,0.00,,,0.00,WUHU216HW,2013-03-29 11:35:00,
2013-03-29 04:45:00,55.1,24.2,30.06,ENE,68,0.2,1.1,30,0.00,,,0.00,WUHU216HW,2013-03-29 11:45:00,
2013-03-29 04:55:00,54.7,24.0,30.06,SW,225,0.0,0.7,30,0.00,,,0.00,WUHU216HW,2013-03-29 11:55:00,
2013-03-29 05:05:00,54.4,24.3,30.07,South,180,0.0,0.7,31,0.00,,,0.00,WUHU216HW,2013-03-29 12:05:00,
2013-03-29 05:15:00,54.0,24.7,30.07,SE,135,0.7,0.9,32,0.00,,,0.00,WUHU216HW,2013-03-29 12:15:00,
2013-03-29 05:25:00,53.6,25.1,30.08,East,90,1.8,1.8,33,0.00,,,0.00,WUHU216HW,2013-03-29 12:25:00,
2013-03-29 05:35:00,53.1,24.6,30.08,SE,135,0.4,1.8,33,0.00,,,0.00,WUHU216HW,2013-03-29 12:35:00,
2013-03-29 05:45:00,52.9,24.5,30.08,East,90,0.7,2.5,33,0.00,,,0.00,WUHU216HW,2013-03-29 12:45:00,
2013-03-29 05:55:00,52.9,24.5,30.07,ESE,113,1.1,1.8,33,0.00,,,0.00,WUHU216HW,2013-03-29 12:55:00,
2013-03-29 06:05:00,52.9,24.5,30.08,SE,135,0.4,1.1,33,0.00,,,0.00,WUHU216HW,2013-03-29 13:05:00,
2013-03-29 06:15:00,52.7,24.3,30.08,SE,135,0.0,0.2,33,0.00,,,0.00,WUHU216HW,2013-03-29 13:15:00,
2013-03-29 06:25:00,52.2,23.8,30.08,East,90,0.4,0.7,33,0.00,,,0.00,WUHU216HW,2013-03-29 13:25:00,
2013-03-29 06:36:00,52.2,23.8,30.08,ESE,113,0.4,0.9,33,0.00,,,0.00,WUHU216HW,2013-03-29 13:36:00,
2013-03-29 06:46:00,52.6,24.1,30.08,ESE,113,0.0,0.4,33,0.00,,,0.00,WUHU216HW,2013-03-29 13:46:00,
2013-03-29 06:56:00,52.9,24.5,30.08,NNE,23,0.2,0.4,33,0.00,,,0.00,WUHU216HW,2013-03-29 13:56:00,
2013-03-29 07:06:00,53.3,25.5,30.08,SW,225,0.4,0.7,34,0.00,,,0.00,WUHU216HW,2013-03-29 14:06:00,
2013-03-29 07:17:00,54.0,26.1,30.09,SW,225,0.0,1.1,34,0.00,,,0.00,WUHU216HW,2013-03-29 14:17:00,
2013-03-29 07:27:00,54.7,26.0,30.09,SW,225,0.0,0.4,33,0.00,,,0.00,WUHU216HW,2013-03-29 14:27:00,
2013-03-29 07:37:00,55.8,26.9,30.09,NNW,338,0.0,0.0,33,0.00,,,0.00,WUHU216HW,2013-03-29 14:37:00,
2013-03-29 07:47:00,57.2,28.2,30.10,NNE,23,0.0,0.0,33,0.00,,,0.00,WUHU216HW,2013-03-29 14:47:00,
2013-03-29 07:57:00,58.9,29.0,30.09,North,0,0.0,0.4,32,0.00,,,0.00,WUHU216HW,2013-03-29 14:57:00,
2013-03-29 08:07:00,60.7,29.7,30.10,NNW,338,0.0,0.0,31,0.00,,,0.00,WUHU216HW,2013-03-29 15:07:00,
2013-03-29 08:17:00,62.3,30.4,30.10,SW,225,0.0,0.4,30,0.00,,,0.00,WUHU216HW,2013-03-29 15:17:00,
2013-03-29 08:27:00,63.7,31.8,30.10,West,270,2.5,2.5,30,0.00,,,0.00,WUHU216HW,2013-03-29 15:27:00,
2013-03-29 08:37:00,65.3,32.2,30.10,WNW,293,0.0,2.2,29,0.00,,,0.00,WUHU216HW,2013-03-29 15:37:00,
2013-03-29 08:47:00,67.0,32.6,30.10,West,270,1.1,2.5,28,0.00,,,0.00,WUHU216HW,2013-03-29 15:47:00,
2013-03-29 08:57:00,68.2,31.7,30.10,West,270,1.3,2.5,26,0.00,,,0.00,WUHU216HW,2013-03-29 15:57:00,
2013-03-29 09:07:00,69.7,31.9,30.10,WSW,248,4.0,4.0,25,0.00,,,0.00,WUHU216HW,2013-03-29 16:07:00,
2013-03-29 09:17:00,71.1,31.1,30.10,WSW,248,1.8,4.3,23,0.00,,,0.00,WUHU216HW,2013-03-29 16:17:00,
2013-03-29 09:28:00,72.0,31.9,30.10,SW,225,0.9,4.3,23,0.00,,,0.00,WUHU216HW,2013-03-29 16:28:00,
2013-03-29 09:38:00,73.1,32.8,30.10,West,270,3.4,3.4,23,0.00,,,0.00,WUHU216HW,2013-03-29 16:38:00,
2013-03-29 09:48:00,74.0,32.5,30.10,East,90,0.2,4.7,22,0.00,,,0.00,WUHU216HW,2013-03-29 16:48:00,
2013-03-29 09:58:00,74.9,33.3,30.10,SW,225,1.1,3.4,22,0.00,,,0.00,WUHU216HW,2013-03-29 16:58:00,
2013-03-29 10:08:00,76.0,33.1,30.10,WSW,248,2.7,2.7,21,0.00,,,0.00,WUHU216HW,2013-03-29 17:08:00,
2013-03-29 10:18:00,76.7,33.7,30.10,North,0,1.1,4.0,21,0.00,,,0.00,WUHU216HW,2013-03-29 17:18:00,
2013-03-29 10:28:00,77.0,31.3,30.10,SW,225,1.1,3.1,19,0.00,,,0.00,WUHU216HW,2013-03-29 17:28:00,
2013-03-29 10:38:00,77.2,34.1,30.10,SW,225,4.0,4.0,21,0.00,,,0.00,WUHU216HW,2013-03-29 17:38:00,
2013-03-29 10:48:00,78.5,35.1,30.10,SW,225,1.8,4.0,21,0.00,,,0.00,WUHU216HW,2013-03-29 17:48:00,
2013-03-29 10:58:00,79.4,35.9,30.10,SE,135,0.9,3.4,21,0.00,,,0.00,WUHU216HW,2013-03-29 17:58:00,
2013-03-29 11:08:00,79.6,36.1,30.09,WSW,248,2.5,2.5,21,0.00,,,0.00,WUHU216HW,2013-03-29 18:08:00,
2013-03-29 11:18:00,80.3,34.0,30.09,SSE,158,4.0,4.5,19,0.00,,,0.00,WUHU216HW,2013-03-29 18:18:00,
2013-03-29 11:28:00,80.6,32.6,30.09,NNW,338,3.4,3.8,18,0.00,,,0.00,WUHU216HW,2013-03-29 18:28:00,
2013-03-29 11:38:00,80.3,34.0,30.09,SW,225,4.7,4.7,19,0.00,,,0.00,WUHU216HW,2013-03-29 18:38:00,
2013-03-29 11:48:00,80.8,32.8,30.08,ESE,113,1.6,4.7,18,0.00,,,0.00,WUHU216HW,2013-03-29 18:48:00,
2013-03-29 11:58:00,81.2,33.0,30.08,SW,225,1.1,4.0,18,0.00,,,0.00,WUHU216HW,2013-03-29 18:58:00,
2013-03-29 12:08:00,82.1,30.4,30.08,SSW,203,4.3,6.9,16,0.00,,,0.00,WUHU216HW,2013-03-29 19:08:00,
2013-03-29 12:18:00,83.0,31.1,30.08,SE,135,2.7,3.8,16,0.00,,,0.00,WUHU216HW,2013-03-29 19:18:00,
2013-03-29 12:29:00,83.0,31.1,30.07,SSW,203,2.7,4.7,16,0.00,,,0.00,WUHU216HW,2013-03-29 19:29:00,
2013-03-29 12:39:00,83.5,26.4,30.07,WSW,248,4.3,7.6,13,0.00,,,0.00,WUHU216HW,2013-03-29 19:39:00,
2013-03-29 12:49:00,84.1,25.1,30.07,NW,315,6.0,6.0,12,0.00,,,0.00,WUHU216HW,2013-03-29 19:49:00,
2013-03-29 12:59:00,84.1,26.8,30.06,SE,135,5.1,5.1,13,0.00,,,0.00,WUHU216HW,2013-03-29 19:59:00,
2013-03-29 13:09:00,84.1,25.1,30.06,SW,225,6.0,6.0,12,0.00,,,0.00,WUHU216HW,2013-03-29 20:09:00,
2013-03-29 13:19:00,83.7,26.6,30.05,ESE,113,2.5,8.9,13,0.00,,,0.00,WUHU216HW,2013-03-29 20:19:00,
2013-03-29 13:29:00,84.4,27.1,30.05,WNW,293,1.8,7.6,13,0.00,,,0.00,WUHU216HW,2013-03-29 20:29:00,
2013-03-29 13:39:00,85.3,27.8,30.04,WSW,248,3.1,4.7,13,0.00,,,0.00,WUHU216HW,2013-03-29 20:39:00,
2013-03-29 13:49:00,85.1,25.9,30.04,SW,225,3.6,4.7,12,0.00,,,0.00,WUHU216HW,2013-03-29 20:49:00,
2013-03-29 13:59:00,85.1,25.9,30.03,West,270,4.9,9.2,12,0.00,,,0.00,WUHU216HW,2013-03-29 20:59:00,
2013-03-29 14:09:00,85.3,24.4,30.03,West,270,8.7,8.7,11,0.00,,,0.00,WUHU216HW,2013-03-29 21:09:00,
2013-03-29 14:19:00,84.4,25.4,30.03,NNW,338,5.6,6.7,12,0.00,,,0.00,WUHU216HW,2013-03-29 21:19:00,
2013-03-29 14:29:00,84.6,25.5,30.02,NNW,338,1.1,7.2,12,0.00,,,0.00,WUHU216HW,2013-03-29 21:29:00,
2013-03-29 14:39:00,85.0,25.7,30.02,WSW,248,1.3,5.4,12,0.00,,,0.00,WUHU216HW,2013-03-29 21:39:00,
2013-03-29 14:49:00,85.0,27.5,30.02,WNW,293,5.8,7.6,13,0.00,,,0.00,WUHU216HW,2013-03-29 21:49:00,
2013-03-29 14:59:00,85.3,27.8,30.02,WSW,248,0.7,4.9,13,0.00,,,0.00,WUHU216HW,2013-03-29 21:59:00,
2013-03-29 15:09:00,85.7,26.4,30.01,WSW,248,2.2,9.2,12,0.00,,,0.00,WUHU216HW,2013-03-29 22:09:00,
2013-03-29 15:20:00,85.7,23.0,30.01,WSW,248,2.0,5.8,10,0.00,,,0.00,WUHU216HW,2013-03-29 22:20:00,
2013-03-29 15:30:00,85.9,24.8,30.01,WSW,248,5.4,7.6,11,0.00,,,0.00,WUHU216HW,2013-03-29 22:30:00,
2013-03-29 15:40:00,85.9,23.0,30.00,WSW,248,5.4,6.9,10,0.00,,,0.00,WUHU216HW,2013-03-29 22:40:00,
2013-03-29 15:50:00,85.5,22.8,30.01,NW,315,3.4,8.7,10,0.00,,,0.00,WUHU216HW,2013-03-29 22:50:00,
2013-03-29 16:00:00,85.3,22.7,30.01,WSW,248,4.5,7.6,10,0.00,,,0.00,WUHU216HW,2013-03-29 23:00:00,
2013-03-29 16:10:00,84.8,24.0,30.00,WNW,293,4.3,7.6,11,0.00,,,0.00,WUHU216HW,2013-03-29 23:10:00,
2013-03-29 16:20:00,84.6,22.1,30.00,WNW,293,6.9,9.8,10,0.00,,,0.00,WUHU216HW,2013-03-29 23:20:00,
2013-03-29 16:30:00,84.8,22.2,30.00,North,0,6.9,6.9,10,0.00,,,0.00,WUHU216HW,2013-03-29 23:30:00,
2013-03-29 16:41:00,84.6,22.1,30.00,NNW,338,4.9,7.4,8,0.00,,,0.00,WUHU216HW,2013-03-29 23:41:00,
2013-03-29 16:51:00,84.2,21.8,30.00,NW,315,4.0,6.3,10,0.00,,,0.00,WUHU216HW,2013-03-29 23:51:00,
2013-03-29 17:01:00,83.9,21.5,30.00,WNW,293,2.5,5.8,10,0.00,,,0.00,WUHU216HW,2013-03-30 00:01:00,
2013-03-29 17:11:00,83.9,21.5,30.00,NW,315,9.8,9.8,8,0.00,,,0.00,WUHU216HW,2013-03-30 00:11:00,
2013-03-29 17:21:00,83.7,21.4,30.00,NNW,338,4.0,8.1,8,0.00,,,0.00,WUHU216HW,2013-03-30 00:21:00,
2013-03-29 17:31:00,83.3,21.2,30.00,NNW,338,4.7,7.4,8,0.00,,,0.00,WUHU216HW,2013-03-30 00:31:00,
2013-03-29 17:41:00,83.0,20.9,30.00,NNW,338,6.7,8.7,8,0.00,,,0.00,WUHU216HW,2013-03-30 00:41:00,
2013-03-29 17:51:00,82.8,20.8,30.00,NNW,338,3.1,7.6,8,0.00,,,0.00,WUHU216HW,2013-03-30 00:51:00,
2013-03-29 18:01:00,82.3,20.3,30.00,NW,315,4.3,5.8,8,0.00,,,0.00,WUHU216HW,2013-03-30 01:01:00,
2013-03-29 18:12:00,81.7,20.0,30.00,NNW,338,3.8,4.9,9,0.00,,,0.00,WUHU216HW,2013-03-30 01:12:00,
2013-03-29 18:22:00,81.0,19.4,30.01,NW,315,0.4,6.3,10,0.00,,,0.00,WUHU216HW,2013-03-30 01:22:00,
2013-03-29 18:32:00,80.3,18.8,30.01,WSW,248,2.7,4.7,10,0.00,,,0.00,WUHU216HW,2013-03-30 01:32:00,
2013-03-29 18:42:00,79.6,18.2,30.01,NW,315,2.5,4.3,10,0.00,,,0.00,WUHU216HW,2013-03-30 01:42:00,
2013-03-29 18:52:00,78.8,17.6,30.01,North,0,1.3,3.4,10,0.00,,,0.00,WUHU216HW,2013-03-30 01:52:00,
2013-03-29 19:02:00,78.1,18.8,30.01,WNW,293,0.7,3.4,11,0.00,,,0.00,WUHU216HW,2013-03-30 02:02:00,
2013-03-29 19:12:00,77.4,18.3,30.01,NNW,338,1.8,1.8,11,0.00,,,0.00,WUHU216HW,2013-03-30 02:12:00,
2013-03-29 19:22:00,76.3,17.5,30.02,WSW,248,0.9,1.1,11,0.00,,,0.00,WUHU216HW,2013-03-30 02:22:00,
2013-03-29 19:32:00,75.2,18.3,30.02,West,270,0.9,0.9,12,0.00,,,0.00,WUHU216HW,2013-03-30 02:32:00,
2013-03-29 19:42:00,74.2,17.5,30.01,West,270,0.7,1.1,12,0.00,,,0.00,WUHU216HW,2013-03-30 02:42:00,
2013-03-29 19:52:00,73.3,18.5,30.02,WSW,248,0.0,0.7,13,0.00,,,0.00,WUHU216HW,2013-03-30 02:52:00,
2013-03-29 20:02:00,72.2,17.6,30.02,WSW,248,0.0,0.0,13,0.00,,,0.00,WUHU216HW,2013-03-30 03:02:00,
2013-03-29 20:12:00,70.7,19.6,30.03,North,0,0.0,0.0,15,0.00,,,0.00,WUHU216HW,2013-03-30 03:12:00,
2013-03-29 20:22:00,69.8,18.9,30.03,North,0,0.2,0.2,15,0.00,,,0.00,WUHU216HW,2013-03-30 03:22:00,
2013-03-29 20:33:00,68.9,18.3,30.03,East,90,0.7,0.7,15,0.00,,,0.00,WUHU216HW,2013-03-30 03:33:00,
2013-03-29 20:43:00,67.9,19.0,30.04,SE,135,0.7,2.5,16,0.00,,,0.00,WUHU216HW,2013-03-30 03:43:00,
2013-03-29 20:53:00,67.5,18.7,30.04,ESE,113,0.2,0.7,16,0.00,,,0.00,WUHU216HW,2013-03-30 03:53:00,
2013-03-29 21:03:00,66.8,19.6,30.05,SE,135,0.4,1.6,17,0.00,,,0.00,WUHU216HW,2013-03-30 04:03:00,
2013-03-29 21:13:00,65.9,18.9,30.05,ESE,113,3.1,3.1,17,0.00,,,0.00,WUHU216HW,2013-03-30 04:13:00,
2013-03-29 21:23:00,65.7,18.7,30.05,ENE,68,1.6,3.6,17,0.00,,,0.00,WUHU216HW,2013-03-30 04:23:00,
2013-03-29 21:33:00,65.5,18.6,30.06,East,90,1.1,1.6,17,0.00,,,0.00,WUHU216HW,2013-03-30 04:33:00,
2013-03-29 21:43:00,65.2,19.9,30.06,ESE,113,1.1,2.0,18,0.00,,,0.00,WUHU216HW,2013-03-30 04:43:00,
2013-03-29 21:53:00,65.0,19.8,30.06,ESE,113,0.0,1.3,18,0.00,,,0.00,WUHU216HW,2013-03-30 04:53:00,
2013-03-29 22:03:00,64.4,19.4,30.06,SE,135,0.0,0.4,18,0.00,,,0.00,WUHU216HW,2013-03-30 05:03:00,
2013-03-29 22:13:00,63.9,18.9,30.06,North,0,0.4,1.1,18,0.00,,,0.00,WUHU216HW,2013-03-30 05:13:00,
2013-03-29 22:24:00,63.0,19.8,30.07,SE,135,0.7,0.9,19,0.00,,,0.00,WUHU216HW,2013-03-30 05:24:00,
2013-03-29 22:34:00,62.5,20.9,30.07,NNW,338,1.3,1.3,20,0.00,,,0.00,WUHU216HW,2013-03-30 05:34:00,
2013-03-29 22:44:00,62.3,21.8,30.07,NE,45,0.0,1.1,21,0.00,,,0.00,WUHU216HW,2013-03-30 05:44:00,
2013-03-29 22:54:00,62.1,21.6,30.07,East,90,1.6,1.6,21,0.00,,,0.00,WUHU216HW,2013-03-30 05:54:00,
2013-03-29 23:04:00,61.9,21.4,30.07,East,90,0.4,0.7,21,0.00,,,0.00,WUHU216HW,2013-03-30 06:04:00,
2013-03-29 23:14:00,61.7,21.3,30.07,ESE,113,0.0,1.1,21,0.00,,,0.00,WUHU216HW,2013-03-30 06:14:00,
2013-03-29 23:24:00,61.4,21.0,30.07,East,90,0.0,1.1,21,0.00,,,0.00,WUHU216HW,2013-03-30 06:24:00,
2013-03-29 23:34:00,61.2,20.9,30.08,East,90,0.0,0.4,21,0.00,,,0.00,WUHU216HW,2013-03-30 06:34:00,
2013-03-29 23:44:00,60.7,20.4,30.07,East,90,0.0,0.0,21,0.00,,,0.00,WUHU216HW,2013-03-30 06:44:00,
2013-03-29 23:54:00,60.3,20.1,30.07,SSE,158,0.4,0.4,21,0.00,,,0.00,WUHU216HW,2013-03-30 06:54:00,